Time;durP1;ratioP1;P1;durP2;ratioP2;P2;SDS_P1;SDS_P2;PMS_P1;PMS_P2;Temp;Humidity;BMP_temperature;BMP_pressure;BME280_temperature;BME280_humidity;BME280_pressure;Samples;Min_cycle;Max_cycle;Signal;HPM_P1;HPM_P2
2023/01/12 00:01:38;;;;;;;;;;;;;;;;;;4927034;29;19918;-79
2023/01/12 00:04:17;;;;;;;;;;;;;;;;;;4926810;29;19915;-79
2023/01/12 00:06:42;;;;;;;;;;;;;;;;;;4921544;29;19915;-78
2023/01/12 00:09:11;;;;;;;;;;;;;;;;;;4920880;29;19915;-79
2023/01/12 00:11:38;;;;;;;;;;;;;;;;;;4885478;29;19915;-78
2023/01/12 00:14:04;;;;;;;;;;;;;;;;;;4916668;29;19923;-79
2023/01/12 00:16:40;;;;;;;;;;;;;;;;;;4900609;29;20010;-79
2023/01/12 00:19:15;;;;;;;;;;;;;;;;;;4916118;29;20401;-79
2023/01/12 00:24:25;;;;;;;;;;;;;;;;;;4915532;29;19915;-78
2023/01/12 00:26:51;;;;;;;;;;;;;;;;;;4912039;29;19915;-79
2023/01/12 00:29:17;;;;;;;;;;;;;;;;;;4898616;29;20437;-79
2023/01/12 00:31:43;;;;;;;;;;;;;;;;;;4917979;29;19915;-78
2023/01/12 00:34:08;;;;;;;;;;;;;;;;;;4935188;29;19952;-78
2023/01/12 00:36:34;;;;;;;;;;;;;;;;;;4950581;29;19911;-78
2023/01/12 00:39:00;;;;;;;;;;;;;;;;;;4920418;29;19965;-78
2023/01/12 00:46:55;;;;;;;;;;;;;;;;;;4948727;29;19922;-78
2023/01/12 00:49:20;;;;;;;;;;;;;;;;;;4935662;29;19911;-78
2023/01/12 00:51:52;;;;;;;;;;;;;;;;;;4934020;29;19921;-78
2023/01/12 00:54:18;;;;;;;;;;;;;;;;;;4921178;29;19922;-79
2023/01/12 00:56:44;;;;;;;;;;;;;;;;;;4931728;29;19915;-79
2023/01/12 00:59:10;;;;;;;;;;;;;;;;;;4932093;29;19918;-79
2023/01/12 01:01:41;;;;;;;;;;;;;;;;;;4935272;29;19919;-79
2023/01/12 01:04:10;;;;;;;;;;;;;;;;;;4948500;29;19914;-79
2023/01/12 01:06:37;;;;;;;;;;;;;;;;;;4934483;29;20121;-78
2023/01/12 01:09:03;;;;;;;;;;;;;;;;;;4937396;29;19919;-79
2023/01/12 01:11:29;;;;;;;;;;;;;;;;;;4934840;29;19971;-80
2023/01/12 01:13:54;;;;;;;;;;;;;;;;;;4936077;29;19922;-81
2023/01/12 01:16:26;;;;;;;;;;;;;;;;;;4936954;29;20394;-79
2023/01/12 01:18:58;;;;;;;;;;;;;;;;;;4936327;29;20378;-79
2023/01/12 01:21:24;;;;;;;;;;;;;;;;;;4969080;29;20297;-79
2023/01/12 01:23:50;;;;;;;;;;;;;;;;;;4937011;29;19982;-79
2023/01/12 01:26:17;;;;;;;;;;;;;;;;;;4919183;29;19921;-79
2023/01/12 01:28:42;;;;;;;;;;;;;;;;;;4950064;29;19915;-80
2023/01/12 01:31:09;;;;;;;;;;;;;;;;;;4935957;29;19978;-79
2023/01/12 01:33:35;;;;;;;;;;;;;;;;;;4938398;29;19918;-80
2023/01/12 01:36:11;;;;;;;;;;;;;;;;;;4955816;29;19914;-79
2023/01/12 01:38:38;;;;;;;;;;;;;;;;;;4921976;29;19915;-78
2023/01/12 01:41:08;;;;;;;;;;;;;;;;;;4899753;29;19919;-79
2023/01/12 01:43:33;;;;;;;;;;;;;;;;;;4899923;29;19915;-78
2023/01/12 01:46:02;;;;;;;;;;;;;;;;;;4899201;29;19911;-78
2023/01/12 01:48:28;;;;;;;;;;;;;;;;;;4900301;29;19915;-78
2023/01/12 01:50:56;;;;;;;;;;;;;;;;;;4889598;29;19922;-79
2023/01/12 01:53:23;;;;;;;;;;;;;;;;;;4908619;29;19934;-81
2023/01/12 01:55:52;;;;;;;;;;;;;;;;;;4923287;29;19899;-79
2023/01/12 01:58:19;;;;;;;;;;;;;;;;;;4909729;28;19903;-79
2023/01/12 02:00:55;;;;;;;;;;;;;;;;;;4909098;29;19935;-79
2023/01/12 02:03:37;;;;;;;;;;;;;;;;;;4925068;28;19899;-79
2023/01/12 02:06:15;;;;;;;;;;;;;;;;;;4924221;29;19919;-78
2023/01/12 02:08:43;;;;;;;;;;;;;;;;;;4904545;29;19942;-81
2023/01/12 02:16:19;;;;;;;;;;;;;;;;;;4919243;29;19912;-80
2023/01/12 02:16:41;;;;;;;;;;;;;;;;;;4918672;29;19915;-79
2023/01/12 02:19:07;;;;;;;;;;;;;;;;;;4901345;29;19951;-80
2023/01/12 02:21:36;;;;;;;;;;;;;;;;;;4904494;29;19934;-80
2023/01/12 02:24:02;;;;;;;;;;;;;;;;;;4920855;29;19915;-80
2023/01/12 02:26:36;;;;;;;;;;;;;;;;;;4906735;29;19915;-80
2023/01/12 02:29:05;;;;;;;;;;;;;;;;;;4913718;29;19906;-79
2023/01/12 02:31:41;;;;;;;;;;;;;;;;;;4940786;28;19904;-79
2023/01/12 02:34:14;;;;;;;;;;;;;;;;;;4956194;28;19919;-78
2023/01/12 02:37:03;;;;;;;;;;;;;;;;;;4925817;28;19911;-79
2023/01/12 02:39:33;;;;;;;;;;;;;;;;;;4940558;29;19919;-79
2023/01/12 02:44:57;;;;;;;;;;;;;;;;;;4909423;29;19926;-79
2023/01/12 02:47:25;;;;;;;;;;;;;;;;;;4959192;28;19903;-79
2023/01/12 02:49:57;;;;;;;;;;;;;;;;;;4960297;28;19939;-80
2023/01/12 02:52:32;;;;;;;;;;;;;;;;;;4943576;29;20006;-79
2023/01/12 02:55:25;;;;;;;;;;;;;;;;;;4943838;29;19903;-80
2023/01/12 02:57:53;;;;;;;;;;;;;;;;;;4976142;28;19899;-80
2023/01/12 03:00:33;;;;;;;;;;;;;;;;;;4943934;29;19926;-80
2023/01/12 03:03:11;;;;;;;;;;;;;;;;;;4957221;29;19903;-80
2023/01/12 03:05:46;;;;;;;;;;;;;;;;;;4909021;29;19947;-79
2023/01/12 03:08:24;;;;;;;;;;;;;;;;;;4910169;29;19900;-80
2023/01/12 03:11:03;;;;;;;;;;;;;;;;;;4910188;29;19915;-80
2023/01/12 03:13:49;;;;;;;;;;;;;;;;;;;;;
2023/01/12 03:16:23;;;;;;;;;;;;;;;;;;4948050;29;19929;-80
2023/01/12 03:19:00;;;;;;;;;;;;;;;;;;4932985;29;19919;-80
2023/01/12 03:21:41;;;;;;;;;;;;;;;;;;4933465;29;19966;-81
2023/01/12 03:24:12;;;;;;;;;;;;;;;;;;4943768;29;19926;-80
2023/01/12 03:26:52;;;;;;;;;;;;;;;;;;4925258;29;19957;-80
2023/01/12 03:29:25;;;;;;;;;;;;;;;;;;4943313;29;19915;-80
2023/01/12 03:32:24;;;;;;;;;;;;;;;;;;;;;
2023/01/12 03:35:05;;;;;;;;;;;;;;;;;;4935300;29;19927;-82
2023/01/12 03:37:30;;;;;;;;;;;;;;;;;;4910337;29;19915;-81
2023/01/12 03:39:56;;;;;;;;;;;;;;;;;;4870064;29;19968;-82
2023/01/12 03:42:21;;;;;;;;;;;;;;;;;;4921612;29;19974;-82
2023/01/12 03:44:47;;;;;;;;;;;;;;;;;;4905375;29;19923;-82
2023/01/12 03:47:12;;;;;;;;;;;;;;;;;;4924452;29;19915;-82
2023/01/12 03:49:37;;;;;;;;;;;;;;;;;;4921920;29;19917;-81
2023/01/12 03:52:03;;;;;;;;;;;;;;;;;;4905717;29;19921;-82
2023/01/12 03:54:28;;;;;;;;;;;;;;;;;;4925181;29;19925;-83
2023/01/12 03:56:53;;;;;;;;;;;;;;;;;;4891334;29;19916;-82
2023/01/12 03:59:19;;;;;;;;;;;;;;;;;;4927751;29;19926;-82
2023/01/12 04:01:45;;;;;;;;;;;;;;;;;;4894592;29;19919;-82
2023/01/12 04:04:10;;;;;;;;;;;;;;;;;;4910327;29;19942;-82
2023/01/12 04:06:36;;;;;;;;;;;;;;;;;;4912054;29;19975;-82
2023/01/12 04:09:01;;;;;;;;;;;;;;;;;;4913042;29;19970;-83
2023/01/12 04:14:11;;;;;;;;;;;;;;;;;;4914510;29;19983;-82
2023/01/12 04:16:36;;;;;;;;;;;;;;;;;;4929513;29;19957;-82
2023/01/12 04:19:01;;;;;;;;;;;;;;;;;;4887819;29;19938;-83
2023/01/12 04:24:11;;;;;;;;;;;;;;;;;;4930674;29;19970;-82
2023/01/12 04:26:36;;;;;;;;;;;;;;;;;;4916112;29;19919;-82
2023/01/12 04:29:02;;;;;;;;;;;;;;;;;;4926079;29;19915;-83
2023/01/12 04:31:27;;;;;;;;;;;;;;;;;;4916216;29;20430;-82
2023/01/12 04:33:52;;;;;;;;;;;;;;;;;;4951238;29;19919;-83
2023/01/12 04:36:18;;;;;;;;;;;;;;;;;;4934503;29;20403;-82
2023/01/12 04:38:43;;;;;;;;;;;;;;;;;;4950710;29;20465;-82
2023/01/12 04:41:09;;;;;;;;;;;;;;;;;;4938283;29;19923;-83
2023/01/12 04:43:34;;;;;;;;;;;;;;;;;;4933017;29;19921;-82
2023/01/12 04:46:00;;;;;;;;;;;;;;;;;;4919360;29;20291;-83
2023/01/12 04:48:25;;;;;;;;;;;;;;;;;;5363244;23;19934;-80
2023/01/12 04:50:51;;;;;;;;;;;;;;;;;;4937746;29;19925;-83
2023/01/12 04:53:16;;;;;;;;;;;;;;;;;;4951680;29;19925;-82
2023/01/12 04:55:42;;;;;;;;;;;;;;;;;;4971553;29;19918;-82
2023/01/12 04:58:07;;;;;;;;;;;;;;;;;;4954890;29;20374;-83
2023/01/12 05:00:33;;;;;;;;;;;;;;;;;;4971060;29;19919;-83
2023/01/12 05:03:01;;;;;;;;;;;;;;;;;;4970136;29;19922;-83
2023/01/12 05:05:26;;;;;;;;;;;;;;;;;;4953113;29;19915;-83
2023/01/12 05:10:36;;;;;;;;;;;;;;;;;;4921081;29;19978;-83
2023/01/12 05:13:01;;;;;;;;;;;;;;;;;;4941938;29;19907;-83
2023/01/12 05:15:26;;;;;;;;;;;;;;;;;;4959263;29;19974;-83
2023/01/12 05:17:53;;;;;;;;;;;;;;;;;;4943044;29;19915;-83
2023/01/12 05:20:18;;;;;;;;;;;;;;;;;;4968784;28;19954;-82
2023/01/12 05:22:44;;;;;;;;;;;;;;;;;;4962042;29;19922;-83
2023/01/12 05:25:09;;;;;;;;;;;;;;;;;;4961214;29;19915;-82
2023/01/12 05:27:35;;;;;;;;;;;;;;;;;;4961397;29;19914;-83
2023/01/12 05:30:00;;;;;;;;;;;;;;;;;;4960515;29;19934;-83
2023/01/12 05:32:26;;;;;;;;;;;;;;;;;;4977967;29;19918;-83
2023/01/12 05:34:54;;;;;;;;;;;;;;;;;;4962202;29;19911;-82
2023/01/12 05:37:20;;;;;;;;;;;;;;;;;;4945210;29;19914;-82
2023/01/12 05:39:45;;;;;;;;;;;;;;;;;;4974615;29;19915;-83
2023/01/12 05:44:55;;;;;;;;;;;;;;;;;;4977178;29;19919;-83
2023/01/12 05:47:21;;;;;;;;;;;;;;;;;;4944786;29;19946;-83
2023/01/12 05:49:46;;;;;;;;;;;;;;;;;;4961270;29;19986;-83
2023/01/12 05:52:12;;;;;;;;;;;;;;;;;;4960491;29;19970;-83
2023/01/12 05:54:37;;;;;;;;;;;;;;;;;;4960650;29;19915;-83
2023/01/12 05:57:03;;;;;;;;;;;;;;;;;;4944062;29;19914;-82
2023/01/12 05:59:29;;;;;;;;;;;;;;;;;;4961446;29;19895;-82
2023/01/12 06:01:55;;;;;;;;;;;;;;;;;;4962053;29;19977;-82
2023/01/12 06:04:21;;;;;;;;;;;;;;;;;;4960362;29;19915;-82
2023/01/12 06:06:47;;;;;;;;;;;;;;;;;;4961839;29;19969;-83
2023/01/12 06:09:13;;;;;;;;;;;;;;;;;;4962788;28;19906;-82
2023/01/12 06:14:23;;;;;;;;;;;;;;;;;;4959665;29;19937;-82
2023/01/12 06:16:49;;;;;;;;;;;;;;;;;;4974766;29;19922;-83
2023/01/12 06:19:17;;;;;;;;;;;;;;;;;;4947772;29;19995;-83
2023/01/12 06:21:46;;;;;;;;;;;;;;;;;;4947521;29;19949;-83
2023/01/12 06:24:13;;;;;;;;;;;;;;;;;;4980072;29;19938;-83
2023/01/12 06:26:43;;;;;;;;;;;;;;;;;;4961735;29;20009;-83
2023/01/12 06:29:09;;;;;;;;;;;;;;;;;;4943348;29;19929;-82
2023/01/12 06:31:35;;;;;;;;;;;;;;;;;;4959819;28;19982;-82
2023/01/12 06:34:01;;;;;;;;;;;;;;;;;;4936827;29;20327;-83
2023/01/12 06:36:27;;;;;;;;;;;;;;;;;;4959836;28;19923;-83
2023/01/12 06:38:52;;;;;;;;;;;;;;;;;;4943884;29;19922;-83
2023/01/12 06:44:03;;;;;;;;;;;;;;;;;;4943434;29;19899;-83
2023/01/12 06:46:28;;;;;;;;;;;;;;;;;;4942866;29;19953;-83
2023/01/12 06:49:00;;;;;;;;;;;;;;;;;;4958671;29;19905;-83
2023/01/12 06:51:44;;;;;;;;;;;;;;;;;;4952579;29;19978;-83
2023/01/12 06:54:09;;;;;;;;;;;;;;;;;;4955783;29;19915;-82
2023/01/12 06:56:35;;;;;;;;;;;;;;;;;;4926233;29;19915;-83
2023/01/12 06:59:01;;;;;;;;;;;;;;;;;;4943464;29;19907;-83
2023/01/12 07:01:27;;;;;;;;;;;;;;;;;;4941714;29;19969;-84
2023/01/12 07:03:53;;;;;;;;;;;;;;;;;;4958498;29;19915;-83
2023/01/12 07:06:18;;;;;;;;;;;;;;;;;;4957409;29;19915;-83
2023/01/12 07:08:44;;;;;;;;;;;;;;;;;;4957174;29;20301;-82
2023/01/12 07:11:13;;;;;;;;;;;;;;;;;;4938079;29;19915;-82
2023/01/12 07:13:39;;;;;;;;;;;;;;;;;;4939103;29;19915;-83
2023/01/12 07:16:04;;;;;;;;;;;;;;;;;;4955472;29;19922;-83
2023/01/12 07:18:33;;;;;;;;;;;;;;;;;;4940832;29;19915;-83
2023/01/12 07:20:58;;;;;;;;;;;;;;;;;;4940216;29;19918;-82
2023/01/12 07:23:24;;;;;;;;;;;;;;;;;;4958567;29;19970;-83
2023/01/12 07:25:49;;;;;;;;;;;;;;;;;;4942222;29;19952;-82
2023/01/12 07:28:15;;;;;;;;;;;;;;;;;;4915521;29;19923;-83
2023/01/12 07:30:41;;;;;;;;;;;;;;;;;;4923707;29;19922;-83
2023/01/12 07:33:07;;;;;;;;;;;;;;;;;;4940188;29;19915;-83
2023/01/12 07:35:32;;;;;;;;;;;;;;;;;;4955921;29;19915;-83
2023/01/12 07:37:58;;;;;;;;;;;;;;;;;;4939363;29;19915;-82
2023/01/12 07:40:39;;;;;;;;;;;;;;;;;;4955143;29;20266;-83
2023/01/12 07:43:05;;;;;;;;;;;;;;;;;;4956979;29;19906;-82
2023/01/12 07:45:31;;;;;;;;;;;;;;;;;;4962294;29;19929;-83
2023/01/12 07:47:56;;;;;;;;;;;;;;;;;;4931396;29;19919;-82
2023/01/12 07:50:22;;;;;;;;;;;;;;;;;;4959464;29;19918;-82
2023/01/12 07:52:48;;;;;;;;;;;;;;;;;;4955133;29;19922;-82
2023/01/12 07:55:15;;;;;;;;;;;;;;;;;;4959661;29;19937;-84
2023/01/12 07:57:41;;;;;;;;;;;;;;;;;;4981600;29;19919;-82
2023/01/12 08:00:06;;;;;;;;;;;;;;;;;;4979342;29;19925;-83
2023/01/12 08:02:32;;;;;;;;;;;;;;;;;;4946973;29;19970;-83
2023/01/12 08:04:58;;;;;;;;;;;;;;;;;;4949037;28;20195;-83
2023/01/12 08:07:25;;;;;;;;;;;;;;;;;;4945417;29;19915;-83
2023/01/12 08:23:31;;;;;;;;;;;;;;;;;;4808804;23;19790552;-84
2023/01/12 08:26:00;;;;;;;;;;;;;;;;;;4951236;29;19965;-83
2023/01/12 08:28:28;;;;;;;;;;;;;;;;;;4966125;28;19909;-84
2023/01/12 08:31:03;;;;;;;;;;;;;;;;;;4965966;28;19907;-85
2023/01/12 08:33:30;;;;;;;;;;;;;;;;;;4944460;29;19982;-78
2023/01/12 08:35:56;;;;;;;;;;;;;;;;;;4941965;29;20476;-80
2023/01/12 08:46:25;;;;;;;;;;;;;;;;;;4961040;29;19915;-84
2023/01/12 08:48:52;;;;;;;;;;;;;;;;;;4962917;28;19926;-83
2023/01/12 08:51:18;;;;;;;;;;;;;;;;;;4963038;28;19966;-84
2023/01/12 08:53:44;;;;;;;;;;;;;;;;;;4946060;29;19923;-83
2023/01/12 08:56:10;;;;;;;;;;;;;;;;;;4962354;28;19918;-83
2023/01/12 08:58:35;;;;;;;;;;;;;;;;;;4935639;28;19933;-84
2023/01/12 09:01:01;;;;;;;;;;;;;;;;;;4915672;29;19910;-83
2023/01/12 09:03:27;;;;;;;;;;;;;;;;;;5046857;23;21147;-83
2023/01/12 09:05:53;;;;;;;;;;;;;;;;;;4950504;28;19925;-83
2023/01/12 09:08:21;;;;;;;;;;;;;;;;;;5200122;23;19990;-85
2023/01/12 09:16:05;;;;;;;;;;;;;;;;;;4952771;29;19927;-82
2023/01/12 09:18:30;;;;;;;;;;;;;;;;;;4938020;29;19919;-82
2023/01/12 09:20:56;;;;;;;;;;;;;;;;;;4951054;29;19933;-83
2023/01/12 09:23:21;;;;;;;;;;;;;;;;;;4936119;29;19914;-82
2023/01/12 09:25:47;;;;;;;;;;;;;;;;;;4952532;29;20385;-82
2023/01/12 09:28:12;;;;;;;;;;;;;;;;;;4934975;29;19922;-82
2023/01/12 09:30:38;;;;;;;;;;;;;;;;;;4953094;29;19922;-82
2023/01/12 09:36:03;;;;;;;;;;;;;;;;;;4917126;29;19911;-82
2023/01/12 09:38:34;;;;;;;;;;;;;;;;;;4903282;29;19916;-84
2023/01/12 09:41:05;;;;;;;;;;;;;;;;;;4887418;29;19919;-81
2023/01/12 09:49:12;;;;;;;;;;;;;;;;;;4895567;29;19930;-81
2023/01/12 09:51:38;;;;;;;;;;;;;;;;;;4897769;29;19899;-82
2023/01/12 09:54:11;;;;;;;;;;;;;;;;;;4884049;29;19923;-81
2023/01/12 09:56:40;;;;;;;;;;;;;;;;;;4884431;29;19916;-81
2023/01/12 09:59:23;;;;;;;;;;;;;;;;;;4900511;29;19903;-82
2023/01/12 10:01:58;;;;;;;;;;;;;;;;;;4884783;29;19920;-82
2023/01/12 10:04:25;;;;;;;;;;;;;;;;;;4869344;29;19916;-83
2023/01/12 10:07:04;;;;;;;;;;;;;;;;;;4900043;29;19912;-83
2023/01/12 10:09:37;;;;;;;;;;;;;;;;;;4885012;29;19916;-81
2023/01/12 10:12:12;;;;;;;;;;;;;;;;;;4885408;29;19924;-82
2023/01/12 10:15:13;;;;;;;;;;;;;;;;;;4883774;29;19947;-84
2023/01/12 10:18:04;;;;;;;;;;;;;;;;;;4890851;29;19971;-79
2023/01/12 10:20:31;;;;;;;;;;;;;;;;;;4870983;29;20554;-79
2023/01/12 10:22:57;;;;;;;;;;;;;;;;;;4855525;29;19947;-80
2023/01/12 10:25:31;;;;;;;;;;;;;;;;;;4886286;29;20422;-82
2023/01/12 10:28:45;;;;;;;;;;;;;;;;;;4899371;29;19912;-81
2023/01/12 10:31:29;;;;;;;;;;;;;;;;;;4888184;29;19920;-82
2023/01/12 10:34:08;;;;;;;;;;;;;;;;;;4888559;29;19979;-80
2023/01/12 10:36:48;;;;;;;;;;;;;;;;;;4888529;29;19904;-83
2023/01/12 10:39:37;;;;;;;;;;;;;;;;;;4886930;29;19920;-81
2023/01/12 10:45:21;;;;;;;;;;;;;;;;;;4887713;29;19912;-82
2023/01/12 10:47:55;;;;;;;;;;;;;;;;;;4887791;29;19939;-82
2023/01/12 10:53:19;;;;;;;;;;;;;;;;;;5177415;23;19922;-81
2023/01/12 10:56:08;;;;;;;;;;;;;;;;;;4965362;28;19903;-83
2023/01/12 10:58:35;;;;;;;;;;;;;;;;;;5032314;23;19917;-83
2023/01/12 11:01:12;;;;;;;;;;;;;;;;;;4966872;28;19910;-82
2023/01/12 11:03:48;;;;;;;;;;;;;;;;;;4965413;28;19902;-83
2023/01/12 11:06:31;;;;;;;;;;;;;;;;;;4951360;28;19914;-82
2023/01/12 11:09:09;;;;;;;;;;;;;;;;;;4951583;28;20000;-81
2023/01/12 11:11:37;;;;;;;;;;;;;;;;;;4946575;28;19921;-79
2023/01/12 11:14:09;;;;;;;;;;;;;;;;;;4963312;28;19937;-82
2023/01/12 11:16:44;;;;;;;;;;;;;;;;;;4948764;28;19993;-81
2023/01/12 11:19:20;;;;;;;;;;;;;;;;;;4980777;28;19981;-81
2023/01/12 11:21:53;;;;;;;;;;;;;;;;;;4950282;28;19954;-81
2023/01/12 11:24:22;;;;;;;;;;;;;;;;;;4949913;28;19949;-81
2023/01/12 11:26:54;;;;;;;;;;;;;;;;;;4950616;28;19940;-81
2023/01/12 11:29:29;;;;;;;;;;;;;;;;;;4950445;28;19909;-81
2023/01/12 11:32:00;;;;;;;;;;;;;;;;;;4949058;28;20409;-82
2023/01/12 11:34:27;;;;;;;;;;;;;;;;;;4946203;28;19913;-82
2023/01/12 11:36:52;;;;;;;;;;;;;;;;;;4947972;28;19937;-83
2023/01/12 11:39:19;;;;;;;;;;;;;;;;;;4964303;28;19925;-82
2023/01/12 11:43:48;;;;;;;;;;;;;;;;;;4962363;28;19930;-83
2023/01/12 11:44:37;;;;;;;;;;;;;;;;;;4964427;28;19905;-82
2023/01/12 11:47:09;;;;;;;;;;;;;;;;;;4949701;28;19902;-83
2023/01/12 11:49:38;;;;;;;;;;;;;;;;;;4949428;28;19975;-81
2023/01/12 11:52:12;;;;;;;;;;;;;;;;;;4948434;28;19914;-82
2023/01/12 11:54:38;;;;;;;;;;;;;;;;;;4947197;28;19899;-82
2023/01/12 11:57:07;;;;;;;;;;;;;;;;;;4948099;28;19911;-83
2023/01/12 11:59:40;;;;;;;;;;;;;;;;;;4962435;28;19902;-83
2023/01/12 12:02:16;;;;;;;;;;;;;;;;;;4980522;28;19985;-81
2023/01/12 12:04:45;;;;;;;;;;;;;;;;;;4947444;28;19925;-82
2023/01/12 12:07:18;;;;;;;;;;;;;;;;;;4949035;28;19934;-82
2023/01/12 12:09:50;;;;;;;;;;;;;;;;;;4964624;28;19898;-82
2023/01/12 12:12:40;;;;;;;;;;;;;;;;;;4954803;28;19925;-81
2023/01/12 12:15:12;;;;;;;;;;;;;;;;;;4949773;28;19899;-83
2023/01/12 12:17:57;;;;;;;;;;;;;;;;;;4951289;28;19942;-82
2023/01/12 12:20:30;;;;;;;;;;;;;;;;;;4948644;28;19902;-81
2023/01/12 12:23:00;;;;;;;;;;;;;;;;;;4964303;28;19990;-81
2023/01/12 12:25:30;;;;;;;;;;;;;;;;;;4949085;28;19922;-82
2023/01/12 12:28:09;;;;;;;;;;;;;;;;;;4950556;28;19965;-83
2023/01/12 12:30:38;;;;;;;;;;;;;;;;;;4966541;28;19918;-80
2023/01/12 12:33:12;;;;;;;;;;;;;;;;;;4968286;28;19902;-82
2023/01/12 12:35:41;;;;;;;;;;;;;;;;;;4951967;28;19898;-83
2023/01/12 12:38:18;;;;;;;;;;;;;;;;;;4953240;28;19944;-83
2023/01/12 12:46:52;;;;;;;;;;;;;;;;;;4967080;28;19914;-79
2023/01/12 12:52:23;;;;;;;;;;;;;;;;;;4968168;28;19909;-81
2023/01/12 12:57:58;;;;;;;;;;;;;;;;;;4990395;23;19926;-80
2023/01/12 13:00:41;;;;;;;;;;;;;;;;;;4933363;29;19918;-80
2023/01/12 13:03:22;;;;;;;;;;;;;;;;;;4949389;29;19981;-81
2023/01/12 13:05:59;;;;;;;;;;;;;;;;;;4935064;29;20429;-82
2023/01/12 13:08:39;;;;;;;;;;;;;;;;;;4950090;29;19946;-81
2023/01/12 13:11:25;;;;;;;;;;;;;;;;;;4951699;28;19907;-81
2023/01/12 13:14:04;;;;;;;;;;;;;;;;;;4934896;28;19899;-82
2023/01/12 13:43:58;;;;;;;;;;;;;;;;;;5878561;23;20906;-81
2023/01/12 13:49:09;;;;;;;;;;;;;;;;;;5189204;23;19911;-81
2023/01/12 13:59:59;;;;;;;;;;;;;;;;;;5738898;23;19914;-82
2023/01/12 14:02:49;;;;;;;;;;;;;;;;;;4950263;29;19930;-82
2023/01/12 14:05:59;;;;;;;;;;;;;;;;;;4934062;28;19935;-82
2023/01/12 14:08:59;;;;;;;;;;;;;;;;;;4940019;28;19938;-82
2023/01/12 14:11:43;;;;;;;;;;;;;;;;;;4945752;28;19918;-80
2023/01/12 14:20:11;;;;;;;;;;;;;;;;;;4929861;28;19926;-82
2023/01/12 14:28:14;;;;;;;;;;;;;;;;;;5626110;23;19911;-81
2023/01/12 14:30:56;;;;;;;;;;;;;;;;;;4965099;28;19962;-80
2023/01/12 14:33:42;;;;;;;;;;;;;;;;;;4959723;29;19930;-83
2023/01/12 14:36:36;;;;;;;;;;;;;;;;;;4960289;29;19917;-82
2023/01/12 15:04:04;;;;;;;;;;;;;;;;;;4905253;29;19918;-82
2023/01/12 15:36:28;;;;;;;;;;;;;;;;;;5154724;23;19946;-84
2023/01/12 15:38:57;;;;;;;;;;;;;;;;;;4963584;28;19942;-84
2023/01/12 15:42:14;;;;;;;;;;;;;;;;;;4947671;28;19930;-84
2023/01/12 15:44:13;;;;;;;;;;;;;;;;;;4943804;28;19939;-83
2023/01/12 15:49:22;;;;;;;;;;;;;;;;;;6019526;23;19921;-82
2023/01/12 15:51:49;;;;;;;;;;;;;;;;;;4962954;28;19957;-83
2023/01/12 15:54:16;;;;;;;;;;;;;;;;;;4960068;28;19903;-82
2023/01/12 15:56:46;;;;;;;;;;;;;;;;;;4928448;29;19899;-85
2023/01/12 15:59:13;;;;;;;;;;;;;;;;;;5490445;23;19918;-83
2023/01/12 16:01:41;;;;;;;;;;;;;;;;;;5552489;23;19924;-85
2023/01/12 16:04:10;;;;;;;;;;;;;;;;;;4958335;28;19922;-84
2023/01/12 16:06:41;;;;;;;;;;;;;;;;;;4931544;29;19919;-82
2023/01/12 16:09:11;;;;;;;;;;;;;;;;;;4931533;28;19907;-82
2023/01/12 16:11:38;;;;;;;;;;;;;;;;;;4932410;28;19909;-81
2023/01/12 16:14:10;;;;;;;;;;;;;;;;;;4948597;28;19903;-83
2023/01/12 16:16:42;;;;;;;;;;;;;;;;;;4947785;28;19915;-82
2023/01/12 16:19:20;;;;;;;;;;;;;;;;;;4932171;29;19911;-83
2023/01/12 16:21:46;;;;;;;;;;;;;;;;;;4931902;28;19926;-83
2023/01/12 16:24:13;;;;;;;;;;;;;;;;;;4964297;28;19938;-84
2023/01/12 16:26:43;;;;;;;;;;;;;;;;;;4964130;28;19903;-83
2023/01/12 16:29:14;;;;;;;;;;;;;;;;;;4964040;28;19906;-84
2023/01/12 16:31:41;;;;;;;;;;;;;;;;;;5367600;23;19930;-83
2023/01/12 16:36:54;;;;;;;;;;;;;;;;;;5264531;23;19914;-82
2023/01/12 16:39:26;;;;;;;;;;;;;;;;;;4966834;28;19919;-82
2023/01/12 16:41:58;;;;;;;;;;;;;;;;;;5295321;23;19915;-83
2023/01/12 16:49:26;;;;;;;;;;;;;;;;;;4926373;28;19911;-84
2023/01/12 16:51:52;;;;;;;;;;;;;;;;;;4928320;28;19899;-83
2023/01/12 16:59:41;;;;;;;;;;;;;;;;;;5164663;23;19922;-83
2023/01/12 17:02:09;;;;;;;;;;;;;;;;;;4949924;29;19911;-83
2023/01/12 17:04:38;;;;;;;;;;;;;;;;;;5242689;23;19926;-83
2023/01/12 17:07:04;;;;;;;;;;;;;;;;;;4947138;29;19910;-82
2023/01/12 17:09:29;;;;;;;;;;;;;;;;;;4946449;29;19982;-85
2023/01/12 17:11:58;;;;;;;;;;;;;;;;;;4947133;28;19915;-82
2023/01/12 17:14:25;;;;;;;;;;;;;;;;;;4929961;28;19906;-83
2023/01/12 17:16:51;;;;;;;;;;;;;;;;;;4945519;29;19922;-82
2023/01/12 17:19:17;;;;;;;;;;;;;;;;;;4961828;28;19903;-82
2023/01/12 17:21:45;;;;;;;;;;;;;;;;;;4961962;29;19922;-82
2023/01/12 17:24:16;;;;;;;;;;;;;;;;;;4930134;29;19934;-82
2023/01/12 17:26:48;;;;;;;;;;;;;;;;;;4942875;29;19947;-84
2023/01/12 17:29:24;;;;;;;;;;;;;;;;;;4928034;29;19922;-83
2023/01/12 17:31:52;;;;;;;;;;;;;;;;;;4942589;29;19915;-83
2023/01/12 17:34:17;;;;;;;;;;;;;;;;;;4922787;29;19919;-82
2023/01/12 17:36:44;;;;;;;;;;;;;;;;;;4940614;29;19915;-82
2023/01/12 18:25:04;;;;;;;;;;;;;;;;;;5917743;23;20895;-83
2023/01/12 18:27:34;;;;;;;;;;;;;;;;;;4947864;28;19923;-81
2023/01/12 18:30:02;;;;;;;;;;;;;;;;;;4963392;28;19964;-84
2023/01/12 18:32:31;;;;;;;;;;;;;;;;;;4963696;28;19989;-83
2023/01/12 18:34:59;;;;;;;;;;;;;;;;;;4951384;28;19926;-84
2023/01/12 18:37:29;;;;;;;;;;;;;;;;;;4945136;28;19919;-85
2023/01/12 18:39:55;;;;;;;;;;;;;;;;;;4944469;29;19919;-85
2023/01/12 18:42:49;;;;;;;;;;;;;;;;;;4944188;28;19968;-84
2023/01/12 18:45:27;;;;;;;;;;;;;;;;;;4943960;29;19942;-84
2023/01/12 18:53:34;;;;;;;;;;;;;;;;;;6009703;23;19921;-83
2023/01/12 18:58:44;;;;;;;;;;;;;;;;;;5794211;23;19950;-83
2023/01/12 19:03:35;;;;;;;;;;;;;;;;;;4944676;28;19907;-82
2023/01/12 19:11:26;;;;;;;;;;;;;;;;;;4964265;28;19926;-84
2023/01/12 19:19:27;;;;;;;;;;;;;;;;;;4960657;28;19903;-84
2023/01/12 19:30:00;;;;;;;;;;;;;;;;;;4962886;28;19910;-84
2023/01/12 19:56:49;;;;;;;;;;;;;;;;;;6033497;23;19945;-84
2023/01/12 20:01:52;;;;;;;;;;;;;;;;;;5773650;23;19917;-83
2023/01/12 20:29:17;;;;;;;;;;;;;;;;;;5340434;23;19938;-83
2023/01/12 20:53:22;;;;;;;;;;;;;;;;;;5958025;23;19948;-83
2023/01/12 21:28:15;;;;;;;;;;;;;;;;;;5977922;23;19921;-84
2023/01/12 21:36:19;;;;;;;;;;;;;;;;;;5025266;23;20402;-81
2023/01/12 21:38:44;;;;;;;;;;;;;;;;;;4928432;29;19957;-81
2023/01/12 21:41:10;;;;;;;;;;;;;;;;;;4928140;29;19919;-81
2023/01/12 21:43:35;;;;;;;;;;;;;;;;;;4944400;29;19922;-80
2023/01/12 21:46:01;;;;;;;;;;;;;;;;;;4925346;29;19938;-81
2023/01/12 21:48:26;;;;;;;;;;;;;;;;;;4942365;29;19915;-81
2023/01/12 21:50:52;;;;;;;;;;;;;;;;;;4925999;29;19915;-81
2023/01/12 21:53:17;;;;;;;;;;;;;;;;;;4944070;29;19915;-81
2023/01/12 21:55:43;;;;;;;;;;;;;;;;;;4926376;29;20347;-81
2023/01/12 21:58:08;;;;;;;;;;;;;;;;;;4925748;29;19970;-81
2023/01/12 22:00:33;;;;;;;;;;;;;;;;;;4943811;29;19942;-80
2023/01/12 22:02:59;;;;;;;;;;;;;;;;;;4944219;29;19911;-82
2023/01/12 22:05:24;;;;;;;;;;;;;;;;;;4913122;29;19914;-81
2023/01/12 22:07:50;;;;;;;;;;;;;;;;;;4944311;29;19970;-81
2023/01/12 22:10:18;;;;;;;;;;;;;;;;;;4927682;29;19993;-82
2023/01/12 22:12:44;;;;;;;;;;;;;;;;;;4945116;29;19939;-81
2023/01/12 22:15:09;;;;;;;;;;;;;;;;;;4944760;29;20346;-82
2023/01/12 22:17:34;;;;;;;;;;;;;;;;;;4927833;29;20425;-81
2023/01/12 22:20:00;;;;;;;;;;;;;;;;;;4945580;29;19915;-81
2023/01/12 22:22:25;;;;;;;;;;;;;;;;;;4948171;29;20006;-81
2023/01/12 22:24:51;;;;;;;;;;;;;;;;;;4930662;29;19914;-82
2023/01/12 22:27:16;;;;;;;;;;;;;;;;;;4927986;29;20036;-81
2023/01/12 22:29:41;;;;;;;;;;;;;;;;;;4928069;29;19911;-80
2023/01/12 22:32:08;;;;;;;;;;;;;;;;;;4944930;29;19915;-79
2023/01/12 22:34:33;;;;;;;;;;;;;;;;;;4927896;29;19921;-82
2023/01/12 22:36:59;;;;;;;;;;;;;;;;;;4913391;29;19915;-81
2023/01/12 22:39:24;;;;;;;;;;;;;;;;;;4944909;29;20006;-82
2023/01/12 22:41:51;;;;;;;;;;;;;;;;;;4945193;29;19962;-81
2023/01/12 22:44:17;;;;;;;;;;;;;;;;;;4946031;29;19922;-81
2023/01/12 22:46:42;;;;;;;;;;;;;;;;;;4945677;29;19918;-81
2023/01/12 22:49:08;;;;;;;;;;;;;;;;;;4944670;29;19921;-81
2023/01/12 22:51:33;;;;;;;;;;;;;;;;;;4943643;29;20358;-81
2023/01/12 22:53:59;;;;;;;;;;;;;;;;;;4946786;29;19915;-81
2023/01/12 22:56:24;;;;;;;;;;;;;;;;;;4911112;29;20385;-81
2023/01/12 22:58:49;;;;;;;;;;;;;;;;;;4927740;29;19916;-81
2023/01/12 23:01:15;;;;;;;;;;;;;;;;;;4945800;29;19919;-82
2023/01/12 23:03:41;;;;;;;;;;;;;;;;;;4930906;29;19944;-81
2023/01/12 23:06:06;;;;;;;;;;;;;;;;;;4929670;29;19919;-81
2023/01/12 23:08:32;;;;;;;;;;;;;;;;;;4946771;29;19919;-81
2023/01/12 23:10:57;;;;;;;;;;;;;;;;;;4947104;29;19921;-82
2023/01/12 23:13:23;;;;;;;;;;;;;;;;;;4945172;29;19926;-81
2023/01/12 23:15:48;;;;;;;;;;;;;;;;;;4927363;29;19918;-81
2023/01/12 23:18:13;;;;;;;;;;;;;;;;;;4926625;29;19915;-81
2023/01/12 23:20:39;;;;;;;;;;;;;;;;;;4943562;29;19922;-81
2023/01/12 23:23:04;;;;;;;;;;;;;;;;;;4926734;29;19915;-81
2023/01/12 23:25:30;;;;;;;;;;;;;;;;;;4925474;29;19939;-81
2023/01/12 23:27:55;;;;;;;;;;;;;;;;;;4945222;29;19914;-81
2023/01/12 23:30:20;;;;;;;;;;;;;;;;;;4945942;29;19922;-81
2023/01/12 23:32:46;;;;;;;;;;;;;;;;;;4945167;29;19915;-81
2023/01/12 23:35:12;;;;;;;;;;;;;;;;;;4944659;29;19922;-81